createdAt,value
2023-04-22T00:00:20.385Z,56.22
2023-04-22T00:02:48.131Z,55.93
2023-04-22T00:05:18.477Z,56.03
2023-04-22T00:07:47.473Z,56.41
2023-04-22T00:10:14.765Z,56.73
2023-04-22T00:12:42.068Z,56.14
2023-04-22T00:15:09.915Z,56.71
2023-04-22T00:17:37.456Z,57.16
2023-04-22T00:20:06.177Z,56.98
2023-04-22T00:22:33.609Z,57.70
2023-04-22T00:25:00.973Z,56.92
2023-04-22T00:27:28.251Z,57.50
2023-04-22T00:29:55.772Z,58.85
2023-04-22T00:32:23.565Z,57.74
2023-04-22T00:34:51.439Z,58.13
2023-04-22T00:37:18.693Z,58.44
2023-04-22T00:39:46.205Z,58.81
2023-04-22T00:42:13.801Z,58.58
2023-04-22T00:44:41.101Z,59.47
2023-04-22T00:47:12.226Z,59.44
2023-04-22T00:49:39.702Z,59.25
2023-04-22T00:52:07.320Z,58.85
2023-04-22T00:54:35.462Z,58.21
2023-04-22T00:57:04.004Z,58.81
2023-04-22T00:59:31.282Z,59.17
2023-04-22T01:01:58.609Z,59.36
2023-04-22T01:04:25.940Z,59.54
2023-04-22T01:06:56.051Z,59.54
2023-04-22T01:09:23.500Z,59.95
2023-04-22T01:11:50.815Z,60.07
2023-04-22T01:14:18.180Z,60.46
2023-04-22T01:16:45.660Z,60.13
2023-04-22T01:19:13.074Z,60.26
2023-04-22T01:21:40.890Z,60.50
2023-04-22T01:24:08.481Z,58.48
2023-04-22T01:26:36.604Z,58.75
2023-04-22T01:29:05.016Z,59.99
2023-04-22T01:31:32.382Z,59.15
2023-04-22T01:33:59.755Z,59.86
2023-04-22T01:36:27.586Z,58.92
2023-04-22T01:38:54.858Z,59.62
2023-04-22T01:41:22.384Z,59.55
2023-04-22T01:43:49.929Z,59.40
2023-04-22T01:46:17.685Z,61.01
2023-04-22T01:48:50.495Z,60.98
2023-04-22T01:51:20.408Z,60.07
2023-04-22T01:53:48.425Z,60.17
2023-04-22T01:56:15.951Z,60.48
2023-04-22T01:58:43.364Z,60.64
2023-04-22T02:01:11.250Z,60.00
2023-04-22T02:03:38.617Z,60.19
2023-04-22T02:06:08.695Z,58.72
2023-04-22T02:08:37.107Z,59.47
2023-04-22T02:11:04.652Z,60.01
2023-04-22T02:13:38.593Z,58.54
2023-04-22T02:16:06.371Z,59.27
2023-04-22T02:18:33.687Z,59.29
2023-04-22T02:21:00.991Z,59.96
2023-04-22T02:23:28.285Z,59.96
2023-04-22T02:25:55.988Z,60.54
2023-04-22T02:28:23.290Z,61.39
2023-04-22T02:30:50.656Z,60.87
2023-04-22T02:33:18.017Z,61.72
2023-04-22T02:35:45.458Z,61.73
2023-04-22T02:38:17.524Z,61.65
2023-04-22T02:40:44.785Z,61.17
2023-04-22T02:43:12.678Z,60.35
2023-04-22T02:45:40.982Z,61.28
2023-04-22T02:48:08.724Z,61.35
2023-04-22T02:50:37.749Z,61.34
2023-04-22T02:53:05.152Z,61.67
2023-04-22T02:55:32.384Z,61.77
2023-04-22T02:57:59.705Z,61.42
2023-04-22T03:00:27.008Z,61.79
2023-04-22T03:02:54.508Z,63.21
2023-04-22T03:05:26.279Z,61.60
2023-04-22T03:07:55.533Z,61.99
2023-04-22T03:10:22.807Z,62.50
2023-04-22T03:12:51.207Z,61.83
2023-04-22T03:15:21.433Z,61.51
2023-04-22T03:17:49.802Z,62.13
2023-04-22T03:20:18.842Z,62.68
2023-04-22T03:22:46.160Z,62.64
2023-04-22T03:25:14.890Z,62.27
2023-04-22T03:27:47.195Z,62.34
2023-04-22T03:30:14.605Z,61.93
2023-04-22T03:32:41.992Z,62.30
2023-04-22T03:35:22.213Z,62.07
2023-04-22T03:37:51.052Z,62.13
2023-04-22T03:40:23.500Z,62.66
2023-04-22T03:42:50.843Z,62.20
2023-04-22T03:45:20.613Z,62.10
2023-04-22T03:47:56.319Z,61.73
2023-04-22T03:50:31.375Z,62.02
2023-04-22T03:53:00.312Z,61.88
2023-04-22T03:55:27.765Z,62.18
2023-04-22T03:57:56.552Z,61.91
2023-04-22T04:00:23.871Z,62.07
2023-04-22T04:03:03.615Z,62.09
2023-04-22T04:05:31.162Z,60.81
2023-04-22T04:07:58.495Z,61.29
2023-04-22T04:10:26.157Z,62.02
2023-04-22T04:12:55.300Z,61.58
2023-04-22T04:15:24.792Z,60.83
2023-04-22T04:17:52.697Z,61.20
2023-04-22T04:20:21.346Z,60.55
2023-04-22T04:22:48.886Z,60.34
2023-04-22T04:25:18.384Z,60.29
2023-04-22T04:27:46.039Z,59.29
2023-04-22T04:30:14.825Z,59.42
2023-04-22T04:32:46.403Z,58.00
2023-04-22T04:35:16.395Z,58.27
2023-04-22T04:37:48.139Z,58.19
2023-04-22T04:40:15.847Z,58.69
2023-04-22T04:42:48.743Z,58.75
2023-04-22T04:45:22.530Z,59.07
2023-04-22T04:47:54.648Z,59.31
2023-04-22T04:50:32.104Z,59.15
2023-04-22T04:53:02.588Z,59.77
2023-04-22T04:55:37.639Z,59.08
2023-04-22T04:58:10.330Z,59.72
2023-04-22T05:00:37.702Z,59.39
2023-04-22T05:03:05.239Z,59.08
2023-04-22T05:05:34.103Z,58.77
2023-04-22T05:08:01.459Z,58.46
2023-04-22T05:10:29.469Z,57.61
2023-04-22T05:12:57.947Z,57.34
2023-04-22T05:15:26.760Z,57.30
2023-04-22T05:17:54.300Z,56.45
2023-04-22T05:20:21.710Z,56.44
2023-04-22T05:22:48.978Z,56.01
2023-04-22T05:25:17.126Z,55.73
2023-04-22T05:27:53.700Z,55.52
2023-04-22T05:30:22.158Z,55.23
2023-04-22T05:32:49.572Z,54.72
2023-04-22T05:35:16.970Z,54.36
2023-04-22T05:37:44.233Z,53.43
2023-04-22T05:40:11.751Z,53.46
2023-04-22T05:42:39.045Z,52.53
2023-04-22T05:45:06.982Z,51.96
2023-04-22T05:47:34.289Z,51.02
2023-04-22T05:50:01.650Z,50.65
2023-04-22T05:52:37.080Z,50.48
2023-04-22T05:55:11.255Z,49.19
2023-04-22T05:57:38.568Z,49.22
2023-04-22T06:00:12.349Z,49.02
2023-04-22T06:02:45.161Z,48.18
2023-04-22T06:05:12.652Z,48.01
2023-04-22T06:07:40.481Z,47.90
2023-04-22T06:10:08.689Z,47.41
2023-04-22T06:12:36.049Z,47.42
2023-04-22T06:15:04.808Z,47.34
2023-04-22T06:17:32.339Z,47.07
2023-04-22T06:19:59.675Z,46.63
2023-04-22T06:22:27.002Z,46.99
2023-04-22T06:24:54.360Z,47.22
2023-04-22T06:27:21.676Z,51.17
2023-04-22T06:29:48.966Z,51.73
2023-04-22T06:32:16.399Z,53.33
2023-04-22T06:34:43.684Z,53.27
2023-04-22T06:37:11.360Z,53.39
2023-04-22T06:39:38.843Z,52.91
2023-04-22T06:42:38.796Z,52.41
2023-04-22T06:45:25.632Z,51.53
2023-04-22T06:48:15.829Z,50.93
2023-04-22T06:51:05.707Z,51.07
2023-04-22T06:53:33.127Z,49.73
2023-04-22T06:56:00.408Z,48.96
2023-04-22T06:58:27.748Z,49.25
2023-04-22T07:00:55.066Z,48.04
2023-04-22T07:03:22.369Z,45.48
2023-04-22T07:06:00.649Z,39.15
2023-04-22T07:08:30.540Z,39.26
2023-04-22T07:10:58.036Z,40.17
2023-04-22T07:13:34.275Z,41.80
2023-04-22T07:16:01.613Z,38.75
2023-04-22T07:18:29.115Z,40.13
2023-04-22T07:20:56.519Z,39.86
2023-04-22T07:23:23.789Z,38.70
2023-04-22T07:25:51.040Z,36.00
2023-04-22T07:28:18.389Z,38.06
2023-04-22T07:30:46.206Z,37.47
2023-04-22T07:33:13.509Z,36.23
2023-04-22T07:35:40.769Z,36.57
2023-04-22T07:38:09.278Z,37.05
2023-04-22T07:40:37.115Z,37.13
2023-04-22T07:43:05.795Z,37.00
2023-04-22T07:45:33.125Z,37.72
2023-04-22T07:48:00.545Z,37.48
2023-04-22T07:50:27.789Z,36.68
2023-04-22T07:52:55.045Z,35.24
2023-04-22T07:55:22.314Z,34.73
2023-04-22T07:57:49.678Z,34.89
2023-04-22T08:00:17.209Z,35.54
2023-04-22T08:02:44.710Z,35.49
2023-04-22T08:05:12.137Z,35.30
2023-04-22T08:07:39.526Z,34.91
2023-04-22T08:10:07.401Z,34.79
2023-04-22T08:12:37.260Z,34.44
2023-04-22T08:15:07.366Z,34.39
2023-04-22T08:17:35.129Z,34.40
2023-04-22T08:20:02.460Z,33.69
2023-04-22T08:22:29.721Z,33.97
2023-04-22T08:24:56.999Z,33.57
2023-04-22T08:27:24.295Z,32.87
2023-04-22T08:29:51.558Z,33.50
2023-04-22T08:32:19.909Z,33.80
2023-04-22T08:34:47.286Z,32.75
2023-04-22T08:37:14.564Z,32.74
2023-04-22T08:39:41.921Z,32.49
2023-04-22T08:42:09.389Z,32.73
2023-04-22T08:44:36.798Z,33.43
2023-04-22T08:47:04.068Z,32.74
2023-04-22T08:49:31.404Z,32.69
2023-04-22T08:51:58.709Z,32.65
2023-04-22T08:54:26.015Z,31.83
2023-04-22T08:56:54.732Z,31.90
2023-04-22T08:59:22.765Z,31.41
2023-04-22T09:01:52.681Z,30.98
2023-04-22T09:04:21.562Z,28.00
2023-04-22T09:06:49.028Z,27.60
2023-04-22T09:09:17.418Z,27.57
2023-04-22T09:11:44.796Z,26.15
2023-04-22T09:14:12.188Z,27.21
2023-04-22T09:16:45.184Z,27.29
2023-04-22T09:19:13.232Z,27.63
2023-04-22T09:21:41.096Z,27.48
2023-04-22T09:24:09.530Z,27.05
2023-04-22T09:26:39.866Z,26.36
2023-04-22T09:29:09.597Z,25.41
2023-04-22T09:31:40.891Z,24.23
2023-04-22T09:34:08.264Z,24.45
2023-04-22T09:36:37.924Z,23.19
2023-04-22T09:39:10.058Z,23.32
2023-04-22T09:41:41.167Z,22.80
2023-04-22T09:44:15.128Z,22.54
2023-04-22T09:46:43.299Z,22.53
2023-04-22T09:49:10.731Z,22.03
2023-04-22T09:51:40.769Z,22.23
2023-04-22T09:54:11.506Z,24.07
2023-04-22T09:56:49.452Z,24.68
2023-04-22T09:59:21.741Z,23.72
2023-04-22T10:01:49.633Z,23.69
2023-04-22T10:04:21.392Z,24.36
2023-04-22T10:06:49.145Z,24.39
2023-04-22T10:09:20.723Z,24.23
2023-04-22T10:11:49.582Z,24.21
2023-04-22T10:14:16.888Z,24.91
2023-04-22T10:16:46.020Z,24.56
2023-04-22T10:19:23.422Z,23.92
2023-04-22T10:21:56.609Z,24.01
2023-04-22T10:24:26.422Z,23.11
2023-04-22T10:27:01.662Z,23.68
2023-04-22T10:29:42.716Z,23.90
2023-04-22T10:32:11.056Z,23.75
2023-04-22T10:34:41.084Z,24.10
2023-04-22T10:37:12.066Z,24.24
2023-04-22T10:39:40.896Z,24.09
2023-04-22T10:42:18.368Z,23.91
2023-04-22T10:44:47.265Z,23.79
2023-04-22T10:47:31.526Z,23.54
2023-04-22T10:50:21.312Z,23.55
2023-04-22T10:52:56.557Z,22.90
2023-04-22T10:55:24.172Z,22.60
2023-04-22T10:57:52.049Z,22.73
2023-04-22T11:00:23.491Z,23.05
2023-04-22T11:02:55.272Z,23.21
2023-04-22T11:05:26.218Z,23.28
2023-04-22T11:07:55.815Z,23.62
2023-04-22T11:10:35.228Z,22.82
2023-04-22T11:13:03.205Z,23.28
2023-04-22T11:15:31.518Z,23.15
2023-04-22T11:17:59.051Z,22.70
2023-04-22T11:20:26.388Z,22.40
2023-04-22T11:22:55.576Z,21.88
2023-04-22T11:25:23.657Z,21.41
2023-04-22T11:27:50.952Z,21.87
2023-04-22T11:30:36.110Z,22.44
2023-04-22T11:33:03.420Z,22.42
2023-04-22T11:35:32.885Z,22.39
2023-04-22T11:38:01.703Z,22.60
2023-04-22T11:40:34.502Z,21.67
2023-04-22T11:43:04.136Z,21.99
2023-04-22T11:45:32.190Z,21.36
2023-04-22T11:47:59.628Z,21.81
2023-04-22T11:50:28.509Z,21.57
2023-04-22T11:52:56.796Z,22.18
2023-04-22T11:55:25.995Z,21.36
2023-04-22T11:57:55.434Z,21.13
2023-04-22T12:00:24.060Z,22.17
2023-04-22T12:03:01.122Z,22.67
2023-04-22T12:05:39.214Z,22.83
2023-04-22T12:08:17.150Z,21.87
2023-04-22T12:10:46.141Z,21.07
2023-04-22T12:13:23.083Z,21.46
2023-04-22T12:15:54.269Z,21.39
2023-04-22T12:18:34.107Z,21.38
2023-04-22T12:21:12.796Z,22.05
2023-04-22T12:23:49.651Z,22.04
2023-04-22T12:26:17.613Z,21.59
2023-04-22T12:28:45.849Z,21.45
2023-04-22T12:31:16.403Z,21.55
2023-04-22T12:33:43.953Z,20.85
2023-04-22T12:36:11.242Z,21.28
2023-04-22T12:38:38.847Z,20.78
2023-04-22T12:41:06.459Z,20.80
2023-04-22T12:43:36.479Z,21.00
2023-04-22T12:46:04.423Z,21.25
2023-04-22T12:48:32.154Z,20.25
2023-04-22T12:50:59.925Z,20.24
2023-04-22T12:53:27.631Z,20.72
2023-04-22T12:55:55.396Z,20.81
2023-04-22T12:58:22.704Z,21.20
2023-04-22T13:00:49.977Z,21.73
2023-04-22T13:03:17.384Z,21.76
2023-04-22T13:05:45.374Z,22.05
2023-04-22T13:08:12.613Z,21.94
2023-04-22T13:10:39.907Z,23.07
2023-04-22T13:15:39.136Z,21.80
2023-04-22T13:18:06.663Z,22.23
2023-04-22T13:20:34.155Z,21.48
2023-04-22T13:23:02.407Z,20.80
2023-04-22T13:25:29.739Z,20.62
2023-04-22T13:27:56.970Z,20.89
2023-04-22T13:30:24.273Z,21.34
2023-04-22T13:32:52.049Z,21.38
2023-04-22T13:35:19.348Z,21.59
2023-04-22T13:37:47.272Z,22.43
2023-04-22T13:40:14.485Z,22.99
2023-04-22T13:42:42.044Z,23.39
2023-04-22T13:45:09.883Z,24.31
2023-04-22T13:47:37.261Z,23.75
2023-04-22T13:50:06.039Z,23.87
2023-04-22T13:52:34.056Z,24.16
2023-04-22T13:55:03.295Z,23.21
2023-04-22T13:57:30.729Z,22.60
2023-04-22T13:59:57.995Z,22.91
2023-04-22T14:02:25.329Z,23.25
2023-04-22T14:04:52.900Z,23.36
2023-04-22T14:07:20.220Z,23.57
2023-04-22T14:09:47.494Z,24.01
2023-04-22T14:12:14.736Z,23.99
2023-04-22T14:14:42.113Z,24.15
2023-04-22T14:17:09.383Z,23.95
2023-04-22T14:19:39.102Z,24.07
2023-04-22T14:22:06.725Z,23.24
2023-04-22T14:24:34.060Z,23.04
2023-04-22T14:27:04.204Z,22.02
2023-04-22T14:29:32.006Z,21.88
2023-04-22T14:31:59.532Z,20.19
2023-04-22T14:34:27.380Z,19.03
2023-04-22T14:36:54.872Z,18.21
2023-04-22T14:39:22.160Z,18.23
2023-04-22T14:41:49.484Z,18.43
2023-04-22T14:44:16.742Z,18.09
2023-04-22T14:46:45.234Z,17.68
2023-04-22T14:49:12.613Z,18.14
2023-04-22T14:51:39.930Z,17.69
2023-04-22T14:54:07.192Z,18.65
2023-04-22T14:56:34.503Z,17.70
2023-04-22T14:59:01.878Z,17.47
2023-04-22T15:01:29.212Z,17.65
2023-04-22T15:03:56.619Z,18.50
2023-04-22T15:06:24.109Z,18.19
2023-04-22T15:08:54.239Z,18.00
2023-04-22T15:11:21.547Z,18.16
2023-04-22T15:13:48.773Z,17.66
2023-04-22T15:16:16.104Z,17.81
2023-04-22T15:18:43.376Z,18.18
2023-04-22T15:21:10.728Z,18.11
2023-04-22T15:23:38.094Z,17.83
2023-04-22T15:26:05.385Z,18.26
2023-04-22T15:28:33.075Z,17.74
2023-04-22T15:31:01.084Z,17.54
2023-04-22T15:33:28.398Z,18.51
2023-04-22T15:35:55.835Z,18.26
2023-04-22T15:38:24.753Z,18.01
2023-04-22T15:40:52.024Z,18.70
2023-04-22T15:43:19.355Z,18.79
2023-04-22T15:45:46.563Z,18.38
2023-04-22T15:48:13.835Z,19.16
2023-04-22T15:50:41.101Z,19.20
2023-04-22T15:53:08.447Z,18.67
2023-04-22T15:55:36.003Z,18.51
2023-04-22T15:58:03.287Z,17.71
2023-04-22T16:00:30.670Z,18.40
2023-04-22T16:02:58.380Z,18.74
2023-04-22T16:05:26.016Z,19.39
2023-04-22T16:07:53.376Z,19.46
2023-04-22T16:10:20.849Z,20.48
2023-04-22T16:12:48.155Z,20.31
2023-04-22T16:15:16.612Z,20.66
2023-04-22T16:17:44.351Z,21.60
2023-04-22T16:20:12.021Z,23.27
2023-04-22T16:22:39.389Z,24.67
2023-04-22T16:25:07.412Z,24.38
2023-04-22T16:27:34.702Z,26.37
2023-04-22T16:30:02.021Z,26.75
2023-04-22T16:32:29.360Z,26.87
2023-04-22T16:34:56.624Z,27.79
2023-04-22T16:37:24.068Z,29.78
2023-04-22T16:39:51.459Z,31.15
2023-04-22T16:42:18.912Z,31.37
2023-04-22T16:44:46.233Z,32.34
2023-04-22T16:47:13.512Z,32.29
2023-04-22T16:49:40.982Z,32.50
2023-04-22T16:52:08.462Z,31.71
2023-04-22T16:54:35.756Z,32.02
2023-04-22T16:57:04.838Z,33.34
2023-04-22T16:59:32.150Z,33.80
2023-04-22T17:01:59.495Z,34.62
2023-04-22T17:04:26.941Z,35.34
2023-04-22T17:06:54.285Z,35.75
2023-04-22T17:09:21.595Z,36.09
2023-04-22T17:11:48.873Z,36.39
2023-04-22T17:14:16.210Z,36.64
2023-04-22T17:16:43.459Z,36.20
2023-04-22T17:19:10.753Z,36.55
2023-04-22T17:21:38.084Z,36.65
2023-04-22T17:24:06.156Z,36.91
2023-04-22T17:26:33.688Z,37.19
2023-04-22T17:29:00.998Z,37.30
2023-04-22T17:31:28.550Z,37.32
2023-04-22T17:33:55.985Z,38.14
2023-04-22T17:36:23.246Z,37.83
2023-04-22T17:38:50.505Z,39.06
2023-04-22T17:41:18.677Z,38.75
2023-04-22T17:43:46.044Z,38.91
2023-04-22T17:46:13.369Z,38.75
2023-04-22T17:48:41.962Z,38.90
2023-04-22T17:51:10.189Z,39.19
2023-04-22T17:53:37.561Z,39.22
2023-04-22T17:56:04.938Z,39.62
2023-04-22T17:58:32.188Z,39.36
2023-04-22T18:00:59.492Z,39.41
2023-04-22T18:03:27.917Z,39.64
2023-04-22T18:05:55.371Z,39.25
2023-04-22T18:08:22.960Z,39.83
2023-04-22T18:10:50.199Z,39.73
2023-04-22T18:13:17.532Z,40.07
2023-04-22T18:15:44.847Z,40.04
2023-04-22T18:18:12.156Z,39.94
2023-04-22T18:20:39.425Z,40.07
2023-04-22T18:23:08.795Z,39.92
2023-04-22T18:25:36.151Z,39.65
2023-04-22T18:28:03.690Z,40.00
2023-04-22T18:30:32.742Z,40.32
2023-04-22T18:33:00.430Z,40.87
2023-04-22T18:35:27.798Z,40.97
2023-04-22T18:37:55.147Z,41.29
2023-04-22T18:40:23.265Z,40.93
2023-04-22T18:42:50.671Z,42.44
2023-04-22T18:45:18.031Z,41.90
2023-04-22T18:47:45.816Z,42.97
2023-04-22T18:50:13.162Z,43.08
2023-04-22T18:52:40.726Z,43.24
2023-04-22T18:55:08.371Z,43.94
2023-04-22T18:57:35.882Z,44.38
2023-04-22T19:00:03.338Z,44.20
2023-04-22T19:02:30.814Z,44.82
2023-04-22T19:04:59.270Z,44.92
2023-04-22T19:07:26.588Z,45.90
2023-04-22T19:09:53.873Z,46.30
2023-04-22T19:12:21.160Z,46.28
2023-04-22T19:14:48.464Z,46.56
2023-04-22T19:17:15.916Z,46.44
2023-04-22T19:19:44.350Z,46.46
2023-04-22T19:22:12.494Z,46.34
2023-04-22T19:24:39.900Z,46.42
2023-04-22T19:27:12.649Z,46.96
2023-04-22T19:29:43.247Z,47.51
2023-04-22T19:32:10.999Z,47.78
2023-04-22T19:34:38.644Z,48.21
2023-04-22T19:37:06.052Z,48.38
2023-04-22T19:39:33.349Z,48.73
2023-04-22T19:42:03.765Z,49.50
2023-04-22T19:44:31.336Z,49.77
2023-04-22T19:46:58.687Z,49.97
2023-04-22T19:49:26.534Z,50.40
2023-04-22T19:51:53.800Z,50.39
2023-04-22T19:54:21.726Z,50.04
2023-04-22T19:56:49.257Z,50.32
2023-04-22T19:59:16.687Z,50.30
2023-04-22T20:01:44.160Z,50.71
2023-04-22T20:04:11.828Z,51.20
2023-04-22T20:06:39.178Z,51.57
2023-04-22T20:09:06.400Z,52.04
2023-04-22T20:11:33.762Z,52.57
2023-04-22T20:14:01.089Z,53.28
2023-04-22T20:16:28.723Z,53.27
2023-04-22T20:18:56.098Z,53.21
2023-04-22T20:21:23.451Z,53.49
2023-04-22T20:23:51.495Z,53.68
2023-04-22T20:26:19.942Z,54.41
2023-04-22T20:28:48.889Z,54.64
2023-04-22T20:31:18.638Z,54.24
2023-04-22T20:33:46.647Z,54.46
2023-04-22T20:36:16.732Z,55.08
2023-04-22T20:38:47.374Z,54.81
2023-04-22T20:41:15.387Z,54.71
2023-04-22T20:43:42.646Z,54.80
2023-04-22T20:46:10.052Z,54.47
2023-04-22T20:48:37.371Z,53.98
2023-04-22T20:51:04.773Z,54.57
2023-04-22T20:53:32.078Z,54.95
2023-04-22T20:55:59.350Z,55.26
2023-04-22T20:58:28.027Z,55.69
2023-04-22T21:00:55.756Z,55.03
2023-04-22T21:03:23.775Z,55.60
2023-04-22T21:05:52.319Z,55.57
2023-04-22T21:08:24.065Z,55.13
2023-04-22T21:10:52.741Z,55.43
2023-04-22T21:13:20.172Z,55.40
2023-04-22T21:16:08.036Z,56.12
2023-04-22T21:18:35.697Z,56.44
2023-04-22T21:21:03.904Z,56.34
2023-04-22T21:23:31.493Z,56.74
2023-04-22T21:26:01.132Z,56.27
2023-04-22T21:28:28.985Z,56.23
2023-04-22T21:30:56.590Z,55.75
2023-04-22T21:33:25.348Z,55.24
2023-04-22T21:35:52.806Z,54.85
2023-04-22T21:38:20.147Z,54.67
2023-04-22T21:40:50.463Z,55.56
2023-04-22T21:43:17.819Z,55.94
2023-04-22T21:45:45.185Z,56.52
2023-04-22T21:48:12.622Z,56.67
2023-04-22T21:50:39.965Z,56.11
2023-04-22T21:53:07.451Z,55.57
2023-04-22T21:55:34.743Z,55.30
2023-04-22T21:58:02.029Z,55.30
2023-04-22T22:00:29.340Z,56.29
2023-04-22T22:02:56.664Z,56.44
2023-04-22T22:05:24.020Z,56.55
2023-04-22T22:07:52.987Z,56.22
2023-04-22T22:10:20.273Z,56.45
2023-04-22T22:12:48.234Z,56.38
2023-04-22T22:15:18.684Z,57.31
2023-04-22T22:17:46.090Z,57.48
2023-04-22T22:20:16.799Z,57.57
2023-04-22T22:22:44.296Z,58.01
2023-04-22T22:25:12.648Z,57.44
2023-04-22T22:27:47.351Z,57.09
2023-04-22T22:30:18.842Z,56.29
2023-04-22T22:32:46.391Z,55.81
2023-04-22T22:35:13.955Z,55.30
2023-04-22T22:37:41.340Z,56.10
2023-04-22T22:40:09.180Z,55.90
2023-04-22T22:42:36.541Z,56.05
2023-04-22T22:45:05.295Z,55.94
2023-04-22T22:47:32.995Z,57.14
2023-04-22T22:50:00.628Z,57.27
2023-04-22T22:52:28.065Z,56.88
2023-04-22T22:54:55.409Z,58.23
2023-04-22T22:57:22.630Z,58.90
2023-04-22T22:59:49.891Z,58.63
2023-04-22T23:02:17.497Z,58.39
2023-04-22T23:04:45.347Z,58.40
2023-04-22T23:07:14.685Z,58.16
2023-04-22T23:09:42.412Z,58.55
2023-04-22T23:12:09.695Z,58.88
2023-04-22T23:14:36.979Z,58.59
2023-04-22T23:17:04.473Z,58.39
2023-04-22T23:19:32.003Z,58.02
2023-04-22T23:21:59.296Z,57.91
2023-04-22T23:24:26.807Z,57.36
2023-04-22T23:26:54.270Z,57.58
2023-04-22T23:29:21.976Z,57.90
2023-04-22T23:31:49.252Z,58.65
2023-04-22T23:34:16.581Z,59.76
2023-04-22T23:36:43.875Z,59.76
2023-04-22T23:39:11.171Z,60.50
2023-04-22T23:41:38.417Z,60.81
2023-04-22T23:44:06.477Z,61.16
2023-04-22T23:46:33.857Z,61.20
2023-04-22T23:49:01.507Z,60.45
2023-04-22T23:51:29.853Z,60.95
2023-04-22T23:53:57.206Z,60.81
2023-04-22T23:56:24.776Z,60.00
2023-04-22T23:58:52.324Z,60.08
